createdAt,value
2019-05-22T00:02:39.050Z,18.20
2019-05-22T00:05:25.335Z,18.19
2019-05-22T00:08:00.592Z,18.19
2019-05-22T00:10:34.608Z,18.16
2019-05-22T00:13:08.160Z,18.12
2019-05-22T00:15:40.169Z,18.07
2019-05-22T00:18:13.343Z,18.01
2019-05-22T00:20:45.305Z,17.97
2019-05-22T00:23:19.108Z,17.89
2019-05-22T00:25:53.529Z,17.80
2019-05-22T00:28:25.900Z,17.74
2019-05-22T00:30:59.418Z,17.67
2019-05-22T00:33:31.590Z,17.61
2019-05-22T00:36:04.644Z,17.58
2019-05-22T00:38:36.529Z,17.55
2019-05-22T00:41:10.034Z,17.56
2019-05-22T00:43:43.622Z,17.57
2019-05-22T00:46:19.467Z,17.56
2019-05-22T00:48:52.476Z,17.57
2019-05-22T00:51:29.972Z,17.58
2019-05-22T00:54:05.618Z,17.60
2019-05-22T00:56:57.326Z,17.61
2019-05-22T00:59:37.201Z,17.62
2019-05-22T01:02:10.483Z,17.60
2019-05-22T01:04:43.808Z,17.61
2019-05-22T01:07:19.434Z,17.62
2019-05-22T01:09:53.133Z,17.63
2019-05-22T01:12:27.859Z,17.61
2019-05-22T01:15:04.825Z,17.55
2019-05-22T01:17:38.523Z,17.51
2019-05-22T01:20:14.268Z,17.47
2019-05-22T01:22:47.900Z,17.42
2019-05-22T01:25:24.783Z,17.41
2019-05-22T01:27:58.386Z,17.40
2019-05-22T01:30:40.624Z,17.33
2019-05-22T01:33:30.680Z,17.30
2019-05-22T01:36:04.578Z,17.26
2019-05-22T01:38:39.016Z,17.23
2019-05-22T01:41:23.443Z,17.19
2019-05-22T01:43:57.059Z,17.16
2019-05-22T01:46:33.015Z,17.14
2019-05-22T01:49:06.931Z,17.14
2019-05-22T01:51:38.980Z,17.16
2019-05-22T01:54:11.432Z,17.18
2019-05-22T01:56:43.577Z,17.21
2019-05-22T01:59:15.595Z,17.26
2019-05-22T02:01:48.679Z,17.29
2019-05-22T02:04:22.162Z,17.30
2019-05-22T02:06:55.784Z,17.34
2019-05-22T02:09:34.175Z,17.34
2019-05-22T02:12:18.015Z,17.31
2019-05-22T02:14:53.059Z,17.28
2019-05-22T02:17:31.787Z,17.23
2019-05-22T02:20:06.842Z,17.21
2019-05-22T02:22:41.039Z,17.16
2019-05-22T02:25:14.438Z,17.20
2019-05-22T02:27:48.137Z,17.20
2019-05-22T02:30:23.503Z,17.15
2019-05-22T02:32:55.890Z,17.13
2019-05-22T02:35:29.403Z,17.16
2019-05-22T02:38:01.721Z,17.19
2019-05-22T02:40:38.002Z,17.21
2019-05-22T02:43:11.488Z,17.22
2019-05-22T02:45:43.873Z,17.27
2019-05-22T02:48:17.958Z,17.34
2019-05-22T02:50:50.253Z,17.40
2019-05-22T02:53:22.429Z,17.47
2019-05-22T02:55:55.808Z,17.53
2019-05-22T02:58:28.970Z,17.61
2019-05-22T03:01:05.790Z,17.70
2019-05-22T03:03:37.786Z,17.78
2019-05-22T03:06:13.664Z,17.85
2019-05-22T03:09:16.283Z,17.88
2019-05-22T03:12:01.036Z,17.96
2019-05-22T03:14:35.267Z,18.00
2019-05-22T03:17:10.082Z,18.07
2019-05-22T03:19:48.617Z,18.13
2019-05-22T03:22:27.940Z,18.22
2019-05-22T03:25:03.946Z,18.29
2019-05-22T03:27:50.499Z,18.31
2019-05-22T03:30:27.967Z,18.36
2019-05-22T03:33:02.572Z,18.52
2019-05-22T03:35:44.204Z,18.69
2019-05-22T03:38:18.309Z,18.89
2019-05-22T03:40:51.432Z,19.10
2019-05-22T03:43:28.473Z,19.27
2019-05-22T03:46:01.685Z,19.35
2019-05-22T03:48:37.619Z,19.38
2019-05-22T03:51:15.161Z,19.39
2019-05-22T03:53:48.836Z,19.37
2019-05-22T03:56:22.438Z,19.40
2019-05-22T03:58:55.519Z,19.49
2019-05-22T04:01:29.088Z,19.52
2019-05-22T04:04:02.823Z,19.54
2019-05-22T04:06:37.320Z,19.46
2019-05-22T04:09:20.078Z,19.33
2019-05-22T04:11:52.809Z,19.14
2019-05-22T04:14:27.865Z,18.98
2019-05-22T04:16:59.843Z,18.83
2019-05-22T04:19:47.449Z,18.68
2019-05-22T04:22:06.315Z,18.54
2019-05-22T04:24:41.062Z,18.43
2019-05-22T04:27:13.115Z,18.30
2019-05-22T04:29:45.580Z,18.18
2019-05-22T04:32:19.181Z,18.07
2019-05-22T04:34:51.904Z,17.98
2019-05-22T04:37:23.918Z,17.90
2019-05-22T04:39:58.373Z,17.84
2019-05-22T04:42:31.148Z,17.78
2019-05-22T04:45:09.598Z,17.70
2019-05-22T04:47:41.764Z,17.67
2019-05-22T04:50:15.667Z,17.58
2019-05-22T04:52:48.490Z,17.44
2019-05-22T04:55:23.866Z,17.37
2019-05-22T04:57:57.638Z,17.36
2019-05-22T05:00:30.936Z,17.32
2019-05-22T05:03:03.119Z,17.31
2019-05-22T05:05:37.751Z,17.28
2019-05-22T05:08:10.892Z,17.26
2019-05-22T05:10:44.425Z,17.21
2019-05-22T05:13:16.205Z,17.19
2019-05-22T05:15:47.961Z,17.22
2019-05-22T05:18:20.167Z,17.14
2019-05-22T05:20:52.360Z,17.12
2019-05-22T05:23:24.362Z,17.09
2019-05-22T05:25:56.198Z,17.00
2019-05-22T05:28:28.398Z,16.95
2019-05-22T05:31:00.466Z,16.95
2019-05-22T05:33:33.833Z,16.88
2019-05-22T05:36:07.276Z,16.86
2019-05-22T05:38:39.624Z,16.85
2019-05-22T05:41:11.808Z,16.87
2019-05-22T05:43:43.774Z,16.82
2019-05-22T05:46:15.915Z,16.78
2019-05-22T05:48:49.003Z,16.81
2019-05-22T05:51:23.529Z,16.75
2019-05-22T05:54:03.077Z,16.76
2019-05-22T05:56:37.668Z,16.78
2019-05-22T05:59:12.107Z,16.79
2019-05-22T06:01:48.258Z,16.78
2019-05-22T06:04:35.076Z,16.80
2019-05-22T06:07:21.172Z,16.77
2019-05-22T06:09:55.807Z,16.80
2019-05-22T06:12:27.978Z,16.77
2019-05-22T06:15:00.651Z,16.78
2019-05-22T06:17:51.998Z,16.87
2019-05-22T06:20:24.340Z,17.00
2019-05-22T06:23:17.098Z,17.02
2019-05-22T06:25:49.385Z,17.02
2019-05-22T06:28:23.419Z,16.96
2019-05-22T06:30:56.458Z,16.89
2019-05-22T06:33:35.745Z,16.80
2019-05-22T06:36:12.531Z,16.67
2019-05-22T06:38:53.677Z,16.59
2019-05-22T06:41:28.541Z,16.53
2019-05-22T06:44:21.335Z,16.54
2019-05-22T06:46:53.789Z,16.60
2019-05-22T06:49:34.671Z,16.72
2019-05-22T06:52:07.848Z,16.76
2019-05-22T06:54:40.672Z,16.91
2019-05-22T06:57:14.275Z,17.04
2019-05-22T06:59:47.362Z,17.20
2019-05-22T07:02:20.506Z,17.35
2019-05-22T07:04:52.782Z,17.62
2019-05-22T07:07:24.987Z,17.89
2019-05-22T07:09:56.877Z,18.14
2019-05-22T07:12:29.405Z,18.32
2019-05-22T07:15:04.545Z,18.45
2019-05-22T07:17:37.687Z,18.61
2019-05-22T07:20:11.443Z,18.76
2019-05-22T07:22:43.618Z,18.91
2019-05-22T07:25:15.527Z,18.94
2019-05-22T07:27:48.348Z,18.90
2019-05-22T07:30:21.088Z,18.88
2019-05-22T07:32:53.093Z,18.89
2019-05-22T07:35:42.372Z,19.01
2019-05-22T07:38:00.201Z,19.17
2019-05-22T07:40:32.285Z,19.34
2019-05-22T07:43:04.388Z,19.59
2019-05-22T07:45:37.601Z,19.85
2019-05-22T07:48:11.277Z,20.05
2019-05-22T07:50:48.404Z,20.29
2019-05-22T07:53:19.739Z,20.41
2019-05-22T07:55:54.086Z,20.54
2019-05-22T07:58:27.961Z,20.67
2019-05-22T08:01:01.820Z,20.75
2019-05-22T08:03:34.544Z,20.66
2019-05-22T08:06:09.487Z,20.55
2019-05-22T08:08:43.920Z,20.25
2019-05-22T08:11:16.400Z,20.12
2019-05-22T08:13:48.656Z,20.01
2019-05-22T08:16:21.750Z,19.97
2019-05-22T08:18:54.045Z,20.00
2019-05-22T08:21:26.511Z,20.10
2019-05-22T08:23:59.220Z,20.30
2019-05-22T08:26:32.225Z,20.40
2019-05-22T08:29:05.047Z,20.58
2019-05-22T08:31:37.945Z,20.66
2019-05-22T08:34:10.184Z,20.62
2019-05-22T08:36:42.292Z,20.70
2019-05-22T08:39:14.648Z,20.85
2019-05-22T08:41:46.683Z,20.90
2019-05-22T08:44:18.564Z,20.82
2019-05-22T08:46:50.225Z,20.89
2019-05-22T08:49:22.676Z,21.02
2019-05-22T08:51:54.961Z,21.16
2019-05-22T08:54:27.794Z,21.31
2019-05-22T08:56:59.822Z,21.40
2019-05-22T08:59:32.393Z,21.50
2019-05-22T09:02:05.174Z,21.62
2019-05-22T09:04:37.250Z,21.69
2019-05-22T09:07:08.893Z,21.94
2019-05-22T09:09:40.756Z,21.93
2019-05-22T09:12:13.552Z,21.84
2019-05-22T09:14:45.535Z,21.72
2019-05-22T09:17:17.767Z,21.60
2019-05-22T09:19:50.855Z,21.38
2019-05-22T09:22:39.159Z,21.07
2019-05-22T09:24:56.933Z,20.66
2019-05-22T09:27:29.186Z,20.36
2019-05-22T09:30:01.477Z,20.16
2019-05-22T09:32:33.013Z,20.03
2019-05-22T09:35:06.425Z,19.99
2019-05-22T09:37:38.595Z,19.89
2019-05-22T09:40:11.883Z,19.91
2019-05-22T09:42:43.948Z,19.88
2019-05-22T09:45:16.502Z,19.89
2019-05-22T09:47:48.694Z,19.90
2019-05-22T09:50:23.223Z,19.78
2019-05-22T09:52:58.030Z,19.58
2019-05-22T09:55:29.799Z,19.36
2019-05-22T09:58:01.776Z,19.13
2019-05-22T10:00:34.142Z,18.91
2019-05-22T10:03:07.227Z,18.78
2019-05-22T10:05:39.281Z,18.67
2019-05-22T10:08:11.054Z,18.57
2019-05-22T10:10:43.817Z,18.43
2019-05-22T10:13:15.909Z,18.33
2019-05-22T10:15:47.743Z,18.27
2019-05-22T10:18:20.286Z,18.20
2019-05-22T10:20:52.315Z,18.18
2019-05-22T10:23:24.863Z,18.14
2019-05-22T10:25:56.426Z,18.13
2019-05-22T10:28:28.786Z,18.08
2019-05-22T10:31:01.168Z,17.98
2019-05-22T10:33:33.448Z,17.86
2019-05-22T10:36:05.615Z,17.77
2019-05-22T10:38:37.459Z,17.66
2019-05-22T10:41:10.273Z,17.53
2019-05-22T10:43:41.974Z,17.40
2019-05-22T10:46:14.182Z,17.25
2019-05-22T10:48:47.418Z,17.14
2019-05-22T10:51:19.626Z,17.06
2019-05-22T10:53:51.798Z,17.00
2019-05-22T10:56:25.006Z,16.97
2019-05-22T10:58:57.485Z,16.96
2019-05-22T11:01:30.964Z,16.94
2019-05-22T11:04:02.840Z,16.89
2019-05-22T11:06:34.676Z,16.78
2019-05-22T11:09:07.259Z,16.66
2019-05-22T11:11:39.989Z,16.59
2019-05-22T11:14:12.498Z,16.53
2019-05-22T11:16:45.629Z,16.41
2019-05-22T11:19:17.918Z,16.29
2019-05-22T11:21:50.344Z,16.13
2019-05-22T11:24:22.231Z,15.98
2019-05-22T11:26:53.759Z,15.78
2019-05-22T11:29:25.434Z,15.59
2019-05-22T11:31:59.190Z,15.48
2019-05-22T11:34:31.044Z,15.42
2019-05-22T11:37:03.469Z,15.45
2019-05-22T11:39:39.823Z,15.62
2019-05-22T11:42:14.067Z,15.78
2019-05-22T11:44:46.573Z,15.82
2019-05-22T11:47:18.696Z,15.91
2019-05-22T11:49:50.630Z,16.03
2019-05-22T11:52:23.015Z,16.18
2019-05-22T11:54:54.897Z,16.36
2019-05-22T11:57:26.860Z,16.55
2019-05-22T11:59:59.949Z,16.71
2019-05-22T12:02:32.110Z,16.88
2019-05-22T12:05:06.051Z,17.07
2019-05-22T12:07:39.124Z,17.25
2019-05-22T12:10:12.534Z,17.42
2019-05-22T12:12:45.783Z,17.57
2019-05-22T12:15:21.132Z,17.69
2019-05-22T12:17:53.095Z,17.80
2019-05-22T12:20:26.396Z,17.87
2019-05-22T12:22:58.461Z,17.91
2019-05-22T12:25:30.768Z,17.95
2019-05-22T12:28:03.150Z,18.01
2019-05-22T12:30:36.120Z,18.12
2019-05-22T12:33:13.777Z,18.30
2019-05-22T12:35:43.400Z,18.61
2019-05-22T12:38:15.617Z,18.92
2019-05-22T12:40:47.427Z,19.34
2019-05-22T12:43:19.388Z,19.77
2019-05-22T12:45:51.357Z,20.10
2019-05-22T12:48:23.397Z,20.42
2019-05-22T12:50:55.667Z,20.78
2019-05-22T12:53:27.648Z,21.04
2019-05-22T12:56:00.366Z,21.20
2019-05-22T12:58:34.029Z,21.30
2019-05-22T13:01:06.417Z,21.43
2019-05-22T13:03:39.379Z,21.52
2019-05-22T13:06:13.045Z,21.57
2019-05-22T13:08:45.455Z,21.61
2019-05-22T13:11:17.433Z,21.56
2019-05-22T13:13:51.852Z,21.49
2019-05-22T13:16:24.573Z,21.49
2019-05-22T13:18:57.720Z,21.40
2019-05-22T13:21:34.413Z,21.31
2019-05-22T13:24:09.247Z,21.19
2019-05-22T13:26:42.218Z,20.97
2019-05-22T13:29:15.507Z,20.72
2019-05-22T13:31:49.927Z,20.48
2019-05-22T13:34:23.331Z,20.30
2019-05-22T13:36:56.948Z,20.08
2019-05-22T13:39:30.710Z,20.04
2019-05-22T13:42:02.767Z,20.11
2019-05-22T13:44:37.388Z,20.39
2019-05-22T13:47:12.093Z,20.87
2019-05-22T13:49:45.410Z,20.99
2019-05-22T13:52:17.381Z,21.01
2019-05-22T13:54:50.375Z,20.97
2019-05-22T13:57:22.774Z,20.91
2019-05-22T13:59:54.733Z,20.84
2019-05-22T14:02:27.392Z,20.68
2019-05-22T14:04:59.161Z,20.44
2019-05-22T14:07:31.329Z,20.15
2019-05-22T14:10:03.884Z,19.99
2019-05-22T14:12:36.176Z,19.97
2019-05-22T14:15:08.749Z,20.06
2019-05-22T14:17:40.884Z,20.21
2019-05-22T14:20:13.965Z,20.47
2019-05-22T14:22:46.569Z,20.84
2019-05-22T14:25:20.438Z,21.19
2019-05-22T14:27:52.447Z,21.49
2019-05-22T14:30:27.705Z,21.68
2019-05-22T14:33:04.336Z,21.72
2019-05-22T14:35:47.519Z,21.69
2019-05-22T14:38:10.656Z,21.48
2019-05-22T14:40:43.007Z,21.29
2019-05-22T14:43:14.792Z,21.16
2019-05-22T14:45:46.730Z,21.01
2019-05-22T14:48:18.403Z,20.74
2019-05-22T14:50:50.671Z,20.61
2019-05-22T14:53:22.521Z,20.48
2019-05-22T14:55:55.054Z,20.29
2019-05-22T14:58:28.401Z,20.05
2019-05-22T15:01:00.571Z,19.79
2019-05-22T15:03:33.991Z,19.62
2019-05-22T15:06:06.018Z,19.53
2019-05-22T15:08:37.944Z,19.41
2019-05-22T15:11:10.759Z,19.33
2019-05-22T15:13:42.828Z,19.23
2019-05-22T15:16:14.804Z,19.16
2019-05-22T15:18:46.702Z,19.08
2019-05-22T15:21:19.686Z,18.94
2019-05-22T15:23:52.342Z,18.79
2019-05-22T15:26:24.071Z,18.67
2019-05-22T15:28:56.726Z,18.53
2019-05-22T15:31:28.962Z,18.35
2019-05-22T15:34:02.755Z,18.19
2019-05-22T15:36:34.911Z,18.09
2019-05-22T15:39:08.762Z,18.01
2019-05-22T15:41:41.596Z,17.95
2019-05-22T15:44:13.388Z,17.95
2019-05-22T15:46:46.074Z,17.97
2019-05-22T15:49:19.548Z,17.99
2019-05-22T15:51:52.339Z,18.03
2019-05-22T15:54:26.722Z,18.09
2019-05-22T15:56:58.424Z,18.13
2019-05-22T15:59:30.366Z,18.17
2019-05-22T16:02:05.190Z,18.21
2019-05-22T16:04:39.200Z,18.24
2019-05-22T16:07:12.886Z,18.25
2019-05-22T16:09:45.990Z,18.25
2019-05-22T16:12:18.723Z,18.26
2019-05-22T16:14:51.743Z,18.26
2019-05-22T16:17:24.436Z,18.26
2019-05-22T16:19:57.362Z,18.28
2019-05-22T16:22:30.664Z,18.27
2019-05-22T16:25:03.090Z,18.25
2019-05-22T16:27:36.077Z,18.23
2019-05-22T16:30:08.127Z,18.18
2019-05-22T16:32:41.015Z,18.11
2019-05-22T16:35:13.409Z,18.06
2019-05-22T16:37:46.210Z,17.99
2019-05-22T16:40:18.740Z,17.94
2019-05-22T16:42:52.034Z,17.87
2019-05-22T16:45:25.793Z,17.82
2019-05-22T16:47:59.416Z,17.77
2019-05-22T16:50:32.779Z,17.72
2019-05-22T16:53:08.391Z,17.66
2019-05-22T16:55:41.659Z,17.57
2019-05-22T16:58:14.252Z,17.50
2019-05-22T17:00:47.308Z,17.46
2019-05-22T17:03:19.978Z,17.43
2019-05-22T17:05:51.790Z,17.39
2019-05-22T17:08:24.359Z,17.36
2019-05-22T17:10:59.556Z,17.32
2019-05-22T17:13:32.865Z,17.23
2019-05-22T17:16:05.055Z,17.13
2019-05-22T17:18:47.604Z,17.01
2019-05-22T17:21:13.214Z,16.89
2019-05-22T17:23:45.778Z,16.77
2019-05-22T17:26:18.458Z,16.67
2019-05-22T17:28:50.459Z,16.55
2019-05-22T17:31:24.436Z,16.46
2019-05-22T17:33:56.423Z,16.38
2019-05-22T17:36:28.685Z,16.29
2019-05-22T17:39:01.651Z,16.19
2019-05-22T17:41:35.642Z,16.12
2019-05-22T17:44:10.452Z,16.06
2019-05-22T17:46:46.025Z,16.02
2019-05-22T17:49:19.031Z,15.95
2019-05-22T17:51:51.402Z,15.89
2019-05-22T17:54:23.556Z,15.86
2019-05-22T17:56:56.236Z,15.81
2019-05-22T17:59:28.311Z,15.77
2019-05-22T18:02:00.656Z,15.72
2019-05-22T18:04:34.329Z,15.67
2019-05-22T18:07:06.783Z,15.63
2019-05-22T18:09:38.563Z,15.61
2019-05-22T18:12:11.410Z,15.60
2019-05-22T18:14:43.629Z,15.57
2019-05-22T18:17:15.939Z,15.53
2019-05-22T18:19:48.011Z,15.49
2019-05-22T18:22:20.132Z,15.45
2019-05-22T18:24:51.868Z,15.40
2019-05-22T18:27:25.368Z,15.37
2019-05-22T18:29:57.179Z,15.33
2019-05-22T18:32:31.580Z,15.29
2019-05-22T18:35:02.964Z,15.27
2019-05-22T18:37:34.717Z,15.22
2019-05-22T18:40:09.373Z,15.18
2019-05-22T18:42:41.414Z,15.13
2019-05-22T18:45:14.428Z,15.11
2019-05-22T18:47:47.259Z,15.07
2019-05-22T18:50:19.148Z,15.03
2019-05-22T18:52:52.048Z,15.00
2019-05-22T18:55:24.288Z,14.94
2019-05-22T18:57:56.395Z,14.88
2019-05-22T19:00:29.257Z,14.86
2019-05-22T19:03:01.219Z,14.82
2019-05-22T19:05:33.904Z,14.78
2019-05-22T19:08:07.900Z,14.74
2019-05-22T19:10:40.180Z,14.72
2019-05-22T19:13:14.610Z,14.69
2019-05-22T19:15:46.968Z,14.66
2019-05-22T19:18:19.726Z,14.59
2019-05-22T19:20:51.737Z,14.56
2019-05-22T19:23:24.501Z,14.52
2019-05-22T19:25:59.322Z,14.50
2019-05-22T19:28:43.519Z,14.48
2019-05-22T19:31:07.041Z,14.47
2019-05-22T19:33:39.647Z,14.49
2019-05-22T19:36:11.987Z,14.56
2019-05-22T19:38:43.965Z,14.66
2019-05-22T19:41:16.838Z,14.79
2019-05-22T19:43:49.516Z,14.91
2019-05-22T19:46:21.530Z,15.03
2019-05-22T19:48:54.735Z,15.11
2019-05-22T19:51:27.318Z,15.18
2019-05-22T19:54:00.954Z,15.23
2019-05-22T19:56:34.129Z,15.27
2019-05-22T19:59:08.858Z,15.31
2019-05-22T20:01:40.952Z,15.32
2019-05-22T20:04:13.846Z,15.31
2019-05-22T20:06:46.019Z,15.33
2019-05-22T20:09:19.692Z,15.37
2019-05-22T20:11:51.801Z,15.40
2019-05-22T20:14:25.367Z,15.45
2019-05-22T20:16:59.866Z,15.42
2019-05-22T20:19:32.065Z,15.35
2019-05-22T20:22:04.525Z,15.23
2019-05-22T20:24:36.783Z,15.11
2019-05-22T20:27:09.989Z,14.98
2019-05-22T20:29:42.307Z,14.88
2019-05-22T20:32:15.660Z,14.77
2019-05-22T20:34:48.783Z,14.67
2019-05-22T20:37:21.518Z,14.58
2019-05-22T20:39:54.060Z,14.49
2019-05-22T20:42:27.006Z,14.41
2019-05-22T20:44:59.639Z,14.35
2019-05-22T20:47:32.392Z,14.29
2019-05-22T20:50:06.504Z,14.25
2019-05-22T20:52:39.760Z,14.24
2019-05-22T20:55:12.708Z,14.23
2019-05-22T20:57:44.992Z,14.21
2019-05-22T21:00:19.743Z,14.17
2019-05-22T21:02:54.142Z,14.11
2019-05-22T21:09:27.151Z,14.06
2019-05-22T21:15:48.324Z,13.91
2019-05-22T21:18:58.023Z,13.85
2019-05-22T21:21:30.999Z,13.83
2019-05-22T21:24:11.221Z,13.86
2019-05-22T21:26:38.921Z,13.89
2019-05-22T21:29:29.070Z,13.91
2019-05-22T21:32:01.889Z,13.93
2019-05-22T21:34:34.975Z,13.95
2019-05-22T21:37:26.082Z,13.99
2019-05-22T21:40:00.609Z,14.05
2019-05-22T21:50:11.141Z,13.98
2019-05-22T21:53:19.993Z,13.93
2019-05-22T21:59:19.721Z,13.97
2019-05-22T22:01:53.481Z,14.05
2019-05-22T22:07:34.386Z,14.17
2019-05-22T22:10:43.720Z,14.18
2019-05-22T22:13:17.709Z,14.17
2019-05-22T22:16:09.993Z,14.16
2019-05-22T22:19:54.127Z,14.18
2019-05-22T22:23:39.303Z,14.18
2019-05-22T22:27:24.349Z,14.18
2019-05-22T22:52:39.956Z,14.58
2019-05-22T22:55:14.545Z,14.57
2019-05-22T22:57:47.483Z,14.58
2019-05-22T23:00:21.567Z,14.59
2019-05-22T23:02:54.682Z,14.62
2019-05-22T23:05:26.647Z,14.66
2019-05-22T23:07:59.915Z,14.69
2019-05-22T23:10:32.951Z,14.72
2019-05-22T23:13:07.241Z,14.73
2019-05-22T23:15:40.342Z,14.72
2019-05-22T23:18:14.948Z,14.67
2019-05-22T23:20:46.517Z,14.61
2019-05-22T23:23:17.659Z,14.53
2019-05-22T23:25:49.725Z,14.41
2019-05-22T23:28:34.111Z,14.35
2019-05-22T23:30:55.722Z,14.33
2019-05-22T23:34:03.270Z,14.30
2019-05-22T23:36:39.309Z,14.27
2019-05-22T23:40:06.097Z,14.26
2019-05-22T23:42:58.971Z,14.26
2019-05-22T23:45:31.201Z,14.26
2019-05-22T23:48:07.407Z,14.27
2019-05-22T23:50:40.302Z,14.33
2019-05-22T23:57:32.243Z,14.38
